Latest Weather Observations for Jandakot

IDW60801

Issued at 10:33 pm WST Tuesday 22 August 2017 (issued every 30 minutes, with the page automatically refreshed every 10 minutes)

About weather observations | Map of weather stations | Latest weather observations for WA | Other Formats
Station Details ID: 009172 Name: JANDAKOT AERO Lat: -32.10 Lon: 115.88 Height: 30.0 m
Data from the previous 72 hours. | See also: Recent months at Jandakot
Date/Time
WST
Temp
°C
App
Temp
°C
Dew
Point
°C
Rel
Hum
%
Delta-T
°C
Wind Press
QNH
hPa
Press
MSL
hPa
Rain since
9am
mm
Dir  Spd
km/h
Gust
km/h
Spd
kts
Gust
kts
22/10:30pm 13.1 11.7 10.8 86 1.2 S 9 13 5 7 1025.2 1025.2 0.0
22/10:00pm 13.4 11.6 10.7 84 1.4 S 11 15 6 8 1025.1 1025.1 0.0
22/09:30pm 14.0 11.6 10.1 77 2.0 SSE 13 20 7 11 1024.9 1024.9 0.0
22/09:00pm 14.4 11.2 9.9 74 2.3 S 17 20 9 11 1024.6 1024.6 0.0
22/08:30pm 14.6 11.3 9.5 71 2.6 S 17 24 9 13 1024.3 1024.3 0.0
22/08:00pm 14.7 11.5 9.9 73 2.5 SSW 17 24 9 13 1024.0 1024.0 0.0
22/07:30pm 14.4 11.8 10.8 79 1.9 S 15 20 8 11 1023.6 1023.6 0.0
22/07:00pm 14.4 12.6 10.8 79 1.9 SSW 11 15 6 8 1023.2 1023.2 0.0
22/06:30pm 14.4 12.5 10.4 77 2.1 SW 11 15 6 8 1022.9 1022.9 0.0
22/06:00pm 15.1 11.6 10.1 72 2.6 SSW 19 24 10 13 1022.5 1022.5 0.0
22/05:30pm 16.1 12.3 9.1 63 3.6 WSW 19 22 10 12 1022.2 1022.2 0.0
22/05:00pm 16.6 14.1 8.3 58 4.2 SSW 11 17 6 9 1021.9 1021.9 0.0
22/04:30pm 16.7 13.5 10.0 64 3.5 WSW 17 20 9 11 1021.7 1021.7 0.0
22/04:00pm 16.8 13.1 10.2 65 3.5 SW 20 26 11 14 1021.4 1021.4 0.0
22/03:30pm 16.7 12.1 9.8 63 3.6 SW 24 30 13 16 1021.4 1021.4 0.0
22/03:00pm 17.4 13.1 7.7 53 4.9 WSW 20 28 11 15 1021.2 1021.2 0.0
22/02:30pm 18.7 14.3 7.4 47 5.7 WSW 20 30 11 16 1021.0 1021.0 0.0
22/02:00pm 17.9 13.0 7.1 49 5.4 WSW 22 30 12 16 1021.0 1021.0 0.0
22/01:30pm 18.3 14.0 6.9 47 5.7 WSW 19 32 10 17 1021.0 1021.0 0.0
22/01:00pm 17.7 13.5 7.6 51 5.1 SW 19 24 10 13 1021.2 1021.2 0.0
22/12:30pm 17.6 13.4 5.9 46 5.7 SW 17 24 9 13 1021.5 1021.5 0.0
22/12:00pm 17.2 13.2 6.6 49 5.2 WSW 17 20 9 11 1021.8 1021.8 0.0
22/11:30am 17.8 15.6 7.7 51 5.1 WNW 9 20 5 11 1022.0 1022.0 0.0
22/11:00am 17.1 15.7 8.7 57 4.3 WNW 6 11 3 6 1022.3 1022.3 0.0
22/10:30am 16.1 15.1 8.9 62 3.7 W 4 11 2 6 1022.5 1022.5 0.0
22/10:00am 15.9 14.8 10.6 71 2.8 NNE 7 13 4 7 1022.3 1022.3 0.0
22/09:30am 14.6 13.7 11.4 81 1.7 NNE 7 11 4 6 1022.1 1022.1 0.0
22/09:00am 13.7 12.3 12.2 91 0.8 NE 11 13 6 7 1022.1 1022.1 0.6
22/08:30am 13.0 12.0 12.4 96 0.3 NE 9 15 5 8 1021.8 1021.8 0.6
22/08:07am 12.2 11.4 11.8 97 0.2 NE 7 7 4 4 1021.7 1021.7 0.6
22/08:00am 12.0 11.4 11.6 97 0.2 NE 6 7 3 4 1021.6 1021.6 0.6
22/07:30am 11.4 11.7 11.0 97 0.2 CALM 0 0 0 0 1021.5 1021.5 0.4
22/07:09am 11.5 11.9 11.1 97 0.2 CALM 0 0 0 0 1021.4 1021.4 0.4
22/07:00am 11.5 11.9 11.1 97 0.2 CALM 0 0 0 0 1021.2 1021.2 0.4
22/06:30am 11.2 11.5 10.8 97 0.2 CALM 0 0 0 0 1020.9 1020.9 0.4
22/06:00am 11.2 10.7 10.8 97 0.2 NE 4 6 2 3 1020.4 1020.4 0.4
22/05:30am 11.3 11.2 10.9 97 0.2 SE 2 7 1 4 1020.1 1020.1 0.4
22/05:00am 11.6 10.8 11.0 96 0.3 W 6 9 3 5 1020.2 1020.2 0.4
22/04:30am 11.3 11.6 10.9 97 0.2 CALM 0 0 0 0 1019.9 1019.9 0.4
22/04:00am 11.1 10.2 10.7 97 0.2 NNE 6 7 3 4 1019.6 1019.6 0.4
22/03:30am 10.7 9.1 10.1 96 0.3 NNE 9 11 5 6 1019.8 1019.8 0.4
22/03:00am 11.4 10.4 11.0 97 0.2 NNE 7 9 4 5 1020.0 1020.0 0.4
22/02:30am 11.4 10.3 10.8 96 0.3 NE 7 7 4 4 1020.3 1020.3 0.4
22/02:00am 10.9 10.3 10.3 96 0.3 ESE 4 7 2 4 1020.5 1020.5 0.4
22/01:30am 11.7 11.6 10.9 95 0.4 NNE 2 6 1 3 1020.7 1020.7 0.4
22/01:00am 12.1 11.8 11.3 95 0.4 NNE 4 6 2 3 1020.9 1020.9 0.4
22/12:30am 12.3 11.4 11.3 94 0.5 NNW 7 11 4 6 1020.9 1020.9 0.4
22/12:00am 12.4 12.8 11.1 92 0.7 CALM 0 11 0 6 1021.1 1021.1 0.2
 
Date/Time
WST
Temp
°C
App
Temp
°C
Dew
Point
°C
Rel
Hum
%
Delta-T
°C
Wind Press
QNH
hPa
Press
MSL
hPa
Rain since
9am
mm
Dir  Spd
km/h
Gust
km/h
Spd
kts
Gust
kts
21/11:30pm 12.0 12.3 11.0 94 0.5 CALM 0 0 0 0 1021.1 1021.1 0.2
21/11:00pm 12.3 10.9 11.0 92 0.7 NE 9 11 5 6 1021.1 1021.1 0.2
21/10:30pm 12.5 11.1 11.0 90 0.8 NNE 9 11 5 6 1021.4 1021.4 0.2
21/10:00pm 12.6 11.6 11.1 91 0.8 NNW 7 9 4 5 1021.8 1021.8 0.2
21/09:30pm 12.3 12.7 11.2 93 0.6 CALM 0 0 0 0 1021.7 1021.7 0.2
21/09:00pm 12.0 12.3 10.8 92 0.6 CALM 0 0 0 0 1021.4 1021.4 0.2
21/08:30pm 12.4 12.7 10.9 90 0.8 CALM 0 0 0 0 1021.3 1021.3 0.2
21/08:00pm 13.0 13.4 11.1 88 1.0 CALM 0 0 0 0 1021.1 1021.1 0.2
21/07:30pm 13.4 10.9 11.1 86 1.2 SW 15 19 8 10 1021.0 1021.0 0.2
21/07:00pm 14.0 12.9 10.8 81 1.7 W 7 11 4 6 1020.7 1020.7 0.2
21/06:30pm 14.1 12.6 10.5 79 1.9 WSW 9 13 5 7 1020.5 1020.5 0.2
21/06:00pm 14.2 13.3 10.6 79 1.9 WSW 6 7 3 4 1020.1 1020.1 0.2
21/05:30pm 14.5 12.9 10.3 76 2.2 WSW 9 11 5 6 1020.0 1020.0 0.2
21/05:00pm 15.0 13.4 10.2 73 2.5 W 9 11 5 6 1020.0 1020.0 0.2
21/04:30pm 14.9 13.2 9.9 72 2.6 W 9 13 5 7 1019.9 1019.9 0.2
21/04:00pm 15.4 12.4 9.2 66 3.2 WSW 15 20 8 11 1019.8 1019.8 0.2
21/03:30pm 15.7 13.8 10.6 71 2.7 WSW 11 17 6 9 1019.7 1019.7 0.2
21/03:00pm 15.4 13.2 10.9 74 2.4 WSW 13 15 7 8 1019.8 1019.8 0.2
21/02:30pm 14.0 11.4 12.0 88 1.1 WSW 17 20 9 11 1020.1 1020.1 0.2
21/02:00pm 14.9 12.9 11.5 80 1.8 N 13 17 7 9 1020.1 1020.1 0.0
21/01:30pm 15.4 13.5 11.9 79 1.9 NNE 13 17 7 9 1020.3 1020.3 0.0
21/01:00pm 14.7 12.5 10.9 78 2.0 W 13 17 7 9 1020.9 1020.9 0.0
21/12:30pm 14.3 12.3 11.5 83 1.5 W 13 19 7 10 1021.6 1021.6 0.0
21/12:00pm 15.8 14.2 10.1 69 3.0 NNE 9 15 5 8 1022.0 1022.0 0.0
21/11:30am 14.4 11.5 9.5 72 2.5 N 15 20 8 11 1022.4 1022.4 0.0
21/11:00am 15.6 14.1 8.5 62 3.6 NNW 6 17 3 9 1022.6 1022.6 0.0
21/10:30am 14.5 13.7 8.3 66 3.1 ESE 2 7 1 4 1022.8 1022.8 0.0
21/10:00am 13.4 12.8 7.4 67 2.9 CALM 0 6 0 3 1023.0 1023.0 0.0
21/09:30am 12.6 11.4 7.9 73 2.3 NNE 4 7 2 4 1023.3 1023.3 0.0
21/09:00am 11.9 10.1 7.3 73 2.2 N 6 9 3 5 1023.3 1023.3 0.0
21/08:30am 11.7 10.0 7.6 76 2.0 NNE 6 9 3 5 1023.1 1023.1 0.0
21/08:00am 11.1 10.5 7.6 79 1.7 CALM 0 6 0 3 1023.1 1023.1 0.0
21/07:30am 10.6 8.2 7.0 78 1.7 N 9 13 5 7 1022.8 1022.8 0.0
21/07:00am 10.4 7.2 7.0 79 1.6 N 13 19 7 10 1022.4 1022.4 0.0
21/06:30am 10.4 6.9 7.0 79 1.6 NNE 15 17 8 9 1022.2 1022.2 0.0
21/06:00am 10.3 7.5 6.9 79 1.6 N 11 13 6 7 1022.2 1022.2 0.0
21/05:30am 10.6 8.2 7.0 78 1.7 N 9 13 5 7 1022.2 1022.2 0.0
21/05:00am 10.6 7.8 7.0 78 1.7 N 11 13 6 7 1022.2 1022.2 0.0
21/04:30am 10.2 7.9 7.5 83 1.3 N 9 9 5 5 1022.1 1022.1 0.0
21/04:00am 10.1 9.5 7.6 84 1.2 CALM 0 0 0 0 1022.1 1022.1 0.0
21/03:30am 10.0 8.7 7.7 86 1.1 NNE 4 7 2 4 1022.1 1022.1 0.0
21/03:00am 10.1 8.2 7.4 83 1.3 N 7 9 4 5 1022.5 1022.5 0.0
21/02:30am 9.9 8.3 8.0 88 0.9 NNE 6 6 3 3 1022.7 1022.7 0.0
21/02:00am 9.8 8.9 7.9 88 0.9 NE 2 6 1 3 1022.7 1022.7 0.0
21/01:30am 9.5 7.7 7.8 89 0.8 NE 7 11 4 6 1022.9 1022.9 0.0
21/01:00am 9.5 7.3 8.0 90 0.7 NNE 9 9 5 5 1023.1 1023.1 0.0
21/12:30am 9.4 7.8 8.2 92 0.6 NNE 6 9 3 5 1023.2 1023.2 0.0
21/12:00am 9.3 8.8 8.0 92 0.6 CALM 0 0 0 0 1023.2 1023.2 0.0
 
Date/Time
WST
Temp
°C
App
Temp
°C
Dew
Point
°C
Rel
Hum
%
Delta-T
°C
Wind Press
QNH
hPa
Press
MSL
hPa
Rain since
9am
mm
Dir  Spd
km/h
Gust
km/h
Spd
kts
Gust
kts
20/11:30pm 9.3 8.8 8.0 92 0.6 CALM 0 0 0 0 1023.5 1023.5 0.0
20/11:00pm 8.9 8.3 7.4 90 0.7 CALM 0 0 0 0 1023.6 1023.6 0.0
20/10:30pm 8.6 8.0 7.3 91 0.6 CALM 0 0 0 0 1023.7 1023.7 0.0
20/10:00pm 8.8 7.5 7.5 91 0.6 SSE 4 6 2 3 1023.9 1023.9 0.0
20/09:30pm 8.1 7.3 6.6 90 0.7 CALM 0 0 0 0 1023.9 1023.9 0.0
20/09:00pm 8.2 5.7 6.7 90 0.7 ENE 9 11 5 6 1023.9 1023.9 0.0
20/08:30pm 9.1 8.5 7.2 88 0.9 CALM 0 0 0 0 1023.9 1023.9 0.0
20/08:00pm 9.6 9.0 7.3 85 1.1 CALM 0 0 0 0 1023.8 1023.8 0.0
20/07:30pm 11.2 10.9 8.6 84 1.3 CALM 0 0 0 0 1023.8 1023.8 0.0
20/07:00pm 11.9 10.3 8.0 77 1.9 SW 6 7 3 4 1023.7 1023.7 0.0
20/06:30pm 12.8 10.4 7.2 69 2.7 SSW 9 11 5 6 1023.4 1023.4 0.0
20/06:00pm 13.8 12.0 7.2 64 3.2 SSW 6 9 3 5 1023.3 1023.3 0.0
20/05:30pm 14.0 12.0 7.0 62 3.4 SE 7 9 4 5 1023.2 1023.2 0.0
20/05:00pm 14.6 12.0 6.0 56 4.1 ESE 9 13 5 7 1023.1 1023.1 0.0
20/04:30pm 14.9 11.8 5.4 53 4.5 SE 11 15 6 8 1023.0 1023.0 0.0
20/04:00pm 15.5 11.1 4.8 49 5.0 SSE 17 20 9 11 1023.0 1023.0 0.0
20/03:30pm 16.0 11.9 4.4 46 5.4 SSE 15 22 8 12 1023.2 1023.2 0.0
20/03:00pm 15.7 12.6 5.4 50 4.9 S 11 17 6 9 1023.4 1023.4 0.0
20/02:30pm 15.4 11.4 4.7 49 5.0 S 15 20 8 11 1023.6 1023.6 0.0
20/02:00pm 15.6 11.2 5.0 49 5.0 SSE 17 28 9 15 1023.6 1023.6 0.0
20/01:30pm 16.0 11.7 5.2 48 5.1 S 17 24 9 13 1023.8 1023.8 0.0
20/01:00pm 15.1 10.3 4.8 50 4.8 SSE 19 26 10 14 1024.1 1024.1 0.0
20/12:30pm 15.8 10.9 5.0 48 5.1 S 20 26 11 14 1024.5 1024.5 0.0
20/12:00pm 15.5 10.9 5.4 51 4.8 SSE 19 30 10 16 1025.0 1025.0 0.0
20/11:30am 14.9 10.6 5.1 52 4.6 S 17 26 9 14 1025.5 1025.5 0.0
20/11:00am 14.6 9.6 4.4 50 4.7 SSE 20 28 11 15 1025.5 1025.5 0.0
20/10:30am 14.2 10.0 5.5 56 4.1 S 17 20 9 11 1025.8 1025.8 0.0
20/10:00am 13.8 9.8 6.5 61 3.5 S 17 22 9 12 1026.0 1026.0 0.0
20/09:30am 13.2 10.6 7.7 69 2.7 S 11 13 6 7 1025.9 1025.9 0.0
20/09:00am 12.5 10.0 8.2 75 2.1 SSE 11 15 6 8 1026.0 1026.0 2.2
20/08:30am 11.6 9.5 8.1 79 1.7 SSE 9 13 5 7 1025.8 1025.8 2.2
20/08:00am 11.0 9.3 8.3 83 1.3 SSE 7 11 4 6 1025.4 1025.4 2.2
20/07:30am 10.8 9.2 8.1 83 1.3 SSW 6 9 3 5 1024.9 1024.9 2.2
20/07:00am 10.6 8.5 8.1 84 1.2 S 9 11 5 6 1024.6 1024.6 2.2
20/06:30am 10.6 8.5 8.1 84 1.2 S 9 13 5 7 1024.2 1024.2 2.2
20/06:00am 10.6 7.7 8.1 84 1.2 S 13 17 7 9 1023.8 1023.8 2.2
20/05:30am 10.5 8.0 8.2 86 1.1 S 11 15 6 8 1023.7 1023.7 2.2
20/05:00am 10.3 7.9 8.5 89 0.9 S 11 15 6 8 1023.6 1023.6 2.2
20/04:30am 10.1 7.7 8.5 90 0.8 S 11 15 6 8 1023.5 1023.5 2.2
20/04:00am 9.7 6.9 8.5 92 0.6 SSE 13 15 7 8 1023.2 1023.2 2.2
20/03:30am 9.5 7.0 8.0 90 0.7 S 11 13 6 7 1023.0 1023.0 2.2
20/03:00am 9.8 7.0 8.4 91 0.7 S 13 17 7 9 1022.8 1022.8 2.2
20/02:30am 9.9 7.9 8.5 91 0.7 S 9 13 5 7 1022.6 1022.6 2.2
20/02:00am 10.7 7.2 8.7 87 1.0 S 17 22 9 12 1022.4 1022.4 2.2
20/01:30am 10.8 7.4 9.0 89 0.9 SSW 17 20 9 11 1022.2 1022.2 2.2
20/01:00am 11.2 7.2 9.2 87 1.0 SSW 20 26 11 14 1022.1 1022.1 2.2
20/12:30am 11.3 7.6 9.5 89 0.9 SSW 19 24 10 13 1022.1 1022.1 2.2
20/12:00am 11.6 7.7 9.4 86 1.1 SSW 20 30 11 16 1021.8 1021.8 2.2
 
Date/Time
WST
Temp
°C
App
Temp
°C
Dew
Point
°C
Rel
Hum
%
Delta-T
°C
Wind Press
QNH
hPa
Press
MSL
hPa
Rain since
9am
mm
Dir  Spd
km/h
Gust
km/h
Spd
kts
Gust
kts
19/11:30pm 11.8 7.1 9.4 85 1.2 SSW 24 33 13 18 1021.8 1021.8 2.2
19/11:00pm 12.2 8.3 9.4 83 1.4 S 20 30 11 16 1021.6 1021.6 2.2

Other Formats:

Comma delimited format used in spreadsheet applications
http://www.bom.gov.au/fwo/IDW60801/IDW60801.94609.axf

JavaScript Object Notation format (JSON) in row-major order
http://www.bom.gov.au/fwo/IDW60801/IDW60801.94609.json